< < Back
Terminal Aerodrome Forecast


Current Version              Previous Versions:   1  2  3  4  5  6  7  8  9  

Terminal Aerodrome Forecast

906
FTUS42 KGSP 300527
TAFCLT
TAF
KCLT 300527Z 3006/3106 14003KT P6SM SCT060 OVC100
     FM301700 23005KT P6SM BKN060 PROB30 3017/3021 4SM TSRA BKN040CB
     FM302200 33005KT P6SM SCT025 BKN050
     FM310200 35005KT P6SM SCT035=



Latest METAR

330
SAUS70 KWBC 301800 RRG
MTRCLT
METAR KCLT 301752Z 01007KT 350V050 10SM SCT043 SCT100 36/21 A2997 RMK
AO2 SLP136 T03560206 10356 20261 58010


USA.gov is the U.S. government's official web portal to all federal, state and local government web resources and services.